createdAt,value
2018-05-18T00:01:00.972Z,9.50
2018-05-18T00:03:28.415Z,9.50
2018-05-18T00:05:55.859Z,9.50
2018-05-18T00:08:23.309Z,9.50
2018-05-18T00:10:50.732Z,9.60
2018-05-18T00:13:18.171Z,9.60
2018-05-18T00:15:46.370Z,9.50
2018-05-18T00:18:13.803Z,9.50
2018-05-18T00:20:42.003Z,9.50
2018-05-18T00:23:09.443Z,9.40
2018-05-18T00:25:37.643Z,9.40
2018-05-18T00:28:05.128Z,9.40
2018-05-18T00:30:32.519Z,9.40
2018-05-18T00:33:00.732Z,9.30
2018-05-18T00:35:28.177Z,9.30
2018-05-18T00:37:55.608Z,9.30
2018-05-18T00:40:23.831Z,9.30
2018-05-18T00:42:51.270Z,9.30
2018-05-18T00:45:18.707Z,9.30
2018-05-18T00:47:46.906Z,9.20
2018-05-18T00:50:15.215Z,9.20
2018-05-18T00:52:42.640Z,9.20
2018-05-18T00:55:21.936Z,9.10
2018-05-18T00:57:50.138Z,9.00
2018-05-18T01:00:17.573Z,9.00
2018-05-18T01:02:45.780Z,9.00
2018-05-18T01:05:13.220Z,9.00
2018-05-18T01:07:40.655Z,9.00
2018-05-18T01:10:08.867Z,9.00
2018-05-18T01:12:36.303Z,8.90
2018-05-18T01:15:03.744Z,8.90
2018-05-18T01:17:31.940Z,8.90
2018-05-18T01:19:59.386Z,8.90
2018-05-18T01:22:27.589Z,9.00
2018-05-18T01:24:55.027Z,9.00
2018-05-18T01:27:22.467Z,9.00
2018-05-18T01:29:50.669Z,9.00
2018-05-18T01:32:18.105Z,9.00
2018-05-18T01:34:46.303Z,9.10
2018-05-18T01:37:13.751Z,9.10
2018-05-18T01:39:41.188Z,9.10
2018-05-18T01:42:09.393Z,9.20
2018-05-18T01:44:36.836Z,9.20
2018-05-18T01:47:04.288Z,9.20
2018-05-18T01:49:31.723Z,9.20
2018-05-18T01:51:59.928Z,9.20
2018-05-18T01:54:27.370Z,9.20
2018-05-18T01:56:55.572Z,9.10
2018-05-18T01:59:23.004Z,9.10
2018-05-18T02:01:50.449Z,9.10
2018-05-18T02:04:18.657Z,8.90
2018-05-18T02:06:46.104Z,8.90
2018-05-18T02:09:13.531Z,8.80
2018-05-18T02:11:41.757Z,8.40
2018-05-18T02:14:09.176Z,8.40
2018-05-18T02:16:36.622Z,8.20
2018-05-18T02:19:04.819Z,7.90
2018-05-18T02:21:32.268Z,7.90
2018-05-18T02:23:59.699Z,7.90
2018-05-18T02:26:27.942Z,8.10
2018-05-18T02:28:56.236Z,8.00
2018-05-18T02:31:23.667Z,8.00
2018-05-18T02:33:51.095Z,8.00
2018-05-18T02:36:18.535Z,7.90
2018-05-18T02:38:45.970Z,7.90
2018-05-18T02:41:13.422Z,7.80
2018-05-18T02:43:40.851Z,7.70
2018-05-18T02:46:08.292Z,7.80
2018-05-18T02:48:35.731Z,7.90
2018-05-18T02:51:03.175Z,8.10
2018-05-18T02:53:30.620Z,8.20
2018-05-18T02:55:58.824Z,8.30
2018-05-18T02:58:26.267Z,8.30
2018-05-18T03:00:54.467Z,8.30
2018-05-18T03:03:21.907Z,8.30
2018-05-18T03:05:49.347Z,8.40
2018-05-18T03:08:17.563Z,8.40
2018-05-18T03:10:45.011Z,8.40
2018-05-18T03:13:12.452Z,8.40
2018-05-18T03:15:39.879Z,8.40
2018-05-18T03:18:08.082Z,8.40
2018-05-18T03:20:36.274Z,8.40
2018-05-18T03:23:03.720Z,8.40
2018-05-18T03:25:31.159Z,8.40
2018-05-18T03:27:59.361Z,8.20
2018-05-18T03:30:26.790Z,8.20
2018-05-18T03:32:54.239Z,8.30
2018-05-18T03:35:22.461Z,8.30
2018-05-18T03:37:49.905Z,8.30
2018-05-18T03:40:17.340Z,8.30
2018-05-18T03:42:44.775Z,8.30
2018-05-18T03:45:12.978Z,8.30
2018-05-18T03:47:57.435Z,8.40
2018-05-18T03:50:26.108Z,8.30
2018-05-18T03:52:55.101Z,8.40
2018-05-18T03:55:23.295Z,8.40
2018-05-18T03:57:50.804Z,8.40
2018-05-18T04:00:18.237Z,8.40
2018-05-18T04:02:57.458Z,8.40
2018-05-18T04:05:36.718Z,8.40
2018-05-18T04:11:05.951Z,8.80
2018-05-18T04:13:33.404Z,8.80
2018-05-18T04:16:00.874Z,8.90
2018-05-18T04:18:28.320Z,8.80
2018-05-18T04:20:55.752Z,8.80
2018-05-18T04:23:23.189Z,8.90
2018-05-18T04:25:50.620Z,9.00
2018-05-18T04:28:18.830Z,9.00
2018-05-18T04:30:46.254Z,9.00
2018-05-18T04:33:14.459Z,9.00
2018-05-18T04:35:41.890Z,9.00
2018-05-18T04:38:09.340Z,8.80
2018-05-18T04:40:37.592Z,8.70
2018-05-18T04:43:05.032Z,8.70
2018-05-18T04:45:32.480Z,8.80
2018-05-18T04:47:59.900Z,9.00
2018-05-18T04:50:27.340Z,9.10
2018-05-18T04:52:55.853Z,8.60
2018-05-18T04:55:24.324Z,8.50
2018-05-18T04:57:51.750Z,8.40
2018-05-18T05:00:19.954Z,8.40
2018-05-18T05:02:47.395Z,8.40
2018-05-18T05:05:15.595Z,8.50
2018-05-18T05:07:43.027Z,8.50
2018-05-18T05:10:10.469Z,8.60
2018-05-18T05:12:38.743Z,9.10
2018-05-18T05:15:06.103Z,9.10
2018-05-18T05:17:34.296Z,9.60
2018-05-18T05:20:01.741Z,9.60
2018-05-18T05:22:29.944Z,10.00
2018-05-18T05:24:57.435Z,10.00
2018-05-18T05:27:24.867Z,10.00
2018-05-18T05:29:52.314Z,10.10
2018-05-18T05:32:19.752Z,10.10
2018-05-18T05:34:48.171Z,10.20
2018-05-18T05:37:15.607Z,10.40
2018-05-18T05:39:43.099Z,10.40
2018-05-18T05:42:10.532Z,10.30
2018-05-18T05:44:37.984Z,10.40
2018-05-18T05:47:05.422Z,10.50
2018-05-18T05:49:32.881Z,10.60
2018-05-18T05:52:00.331Z,10.60
2018-05-18T05:54:27.767Z,10.80
2018-05-18T05:56:55.975Z,10.90
2018-05-18T05:59:23.411Z,10.90
2018-05-18T06:01:51.080Z,10.90
2018-05-18T06:04:19.265Z,10.90
2018-05-18T06:06:46.778Z,10.90
2018-05-18T06:09:14.206Z,11.00
2018-05-18T06:11:41.659Z,11.10
2018-05-18T06:14:09.085Z,11.10
2018-05-18T06:16:36.525Z,11.10
2018-05-18T06:19:04.720Z,11.40
2018-05-18T06:21:32.170Z,11.30
2018-05-18T06:23:59.782Z,11.40
2018-05-18T06:26:28.034Z,11.50
2018-05-18T06:28:55.472Z,11.50
2018-05-18T06:31:22.907Z,11.30
2018-05-18T06:33:51.247Z,11.10
2018-05-18T06:36:18.691Z,11.10
2018-05-18T06:38:46.119Z,11.10
2018-05-18T06:41:13.566Z,11.10
2018-05-18T06:43:40.995Z,11.10
2018-05-18T06:46:08.434Z,11.10
2018-05-18T06:48:35.862Z,11.20
2018-05-18T06:51:03.321Z,11.20
2018-05-18T06:53:30.752Z,11.30
2018-05-18T06:55:58.192Z,11.40
2018-05-18T06:58:26.409Z,11.50
2018-05-18T07:00:53.837Z,11.50
2018-05-18T07:03:21.267Z,11.60
2018-05-18T07:05:48.730Z,11.60
2018-05-18T07:08:16.930Z,11.80
2018-05-18T07:10:44.368Z,11.80
2018-05-18T07:13:12.578Z,11.90
2018-05-18T07:15:40.014Z,11.80
2018-05-18T07:18:07.459Z,11.90
2018-05-18T07:20:35.662Z,12.10
2018-05-18T07:23:03.126Z,12.10
2018-05-18T07:25:30.546Z,12.20
2018-05-18T07:27:58.750Z,12.20
2018-05-18T07:30:26.183Z,12.20
2018-05-18T07:32:53.623Z,12.30
2018-05-18T07:35:21.819Z,12.40
2018-05-18T07:37:49.259Z,12.40
2018-05-18T07:40:17.458Z,12.60
2018-05-18T07:42:44.902Z,12.60
2018-05-18T07:45:12.343Z,12.60
2018-05-18T07:47:40.556Z,12.70
2018-05-18T07:50:08.044Z,12.70
2018-05-18T07:52:36.187Z,12.80
2018-05-18T07:55:03.630Z,12.80
2018-05-18T07:57:31.070Z,12.90
2018-05-18T07:59:59.280Z,13.00
2018-05-18T08:02:26.738Z,13.00
2018-05-18T08:04:54.161Z,13.00
2018-05-18T08:07:22.368Z,13.20
2018-05-18T08:09:49.802Z,13.20
2018-05-18T08:12:17.234Z,13.30
2018-05-18T08:14:45.443Z,13.50
2018-05-18T08:17:12.883Z,13.50
2018-05-18T08:19:40.311Z,13.60
2018-05-18T08:22:07.747Z,13.70
2018-05-18T08:24:35.188Z,13.70
2018-05-18T08:27:14.663Z,13.80
2018-05-18T08:29:42.106Z,13.70
2018-05-18T08:32:09.546Z,13.80
2018-05-18T08:34:36.995Z,13.60
2018-05-18T08:37:04.547Z,13.50
2018-05-18T08:39:31.958Z,13.60
2018-05-18T08:42:00.171Z,13.60
2018-05-18T08:44:27.722Z,13.60
2018-05-18T08:46:55.051Z,13.70
2018-05-18T08:49:23.254Z,13.90
2018-05-18T08:51:50.685Z,13.90
2018-05-18T08:54:18.904Z,14.10
2018-05-18T08:56:46.352Z,14.20
2018-05-18T08:59:13.815Z,14.30
2018-05-18T09:01:41.251Z,14.40
2018-05-18T09:04:08.688Z,14.60
2018-05-18T09:06:36.891Z,14.80
2018-05-18T09:09:05.614Z,14.80
2018-05-18T09:11:33.063Z,14.90
2018-05-18T09:14:00.504Z,15.10
2018-05-18T09:16:27.959Z,15.10
2018-05-18T09:18:55.404Z,15.20
2018-05-18T09:21:22.837Z,15.20
2018-05-18T09:23:51.048Z,15.30
2018-05-18T09:26:18.524Z,15.30
2018-05-18T09:28:46.825Z,15.30
2018-05-18T09:31:14.239Z,15.50
2018-05-18T09:33:41.678Z,15.70
2018-05-18T09:36:09.110Z,15.90
2018-05-18T09:38:37.367Z,16.00
2018-05-18T09:41:04.799Z,15.90
2018-05-18T09:43:32.247Z,16.00
2018-05-18T09:45:59.700Z,16.00
2018-05-18T09:48:27.142Z,16.00
2018-05-18T09:50:54.574Z,16.10
2018-05-18T09:53:22.804Z,16.40
2018-05-18T09:55:50.244Z,16.40
2018-05-18T09:58:17.682Z,16.50
2018-05-18T10:00:45.148Z,16.60
2018-05-18T10:03:13.328Z,16.20
2018-05-18T10:05:40.769Z,16.10
2018-05-18T10:08:08.204Z,16.20
2018-05-18T10:10:36.417Z,16.00
2018-05-18T10:13:03.847Z,16.00
2018-05-18T10:15:31.284Z,16.30
2018-05-18T10:17:59.478Z,16.50
2018-05-18T10:20:26.917Z,16.50
2018-05-18T10:22:55.115Z,16.60
2018-05-18T10:25:27.139Z,16.60
2018-05-18T10:27:54.563Z,16.80
2018-05-18T10:30:28.752Z,16.70
2018-05-18T10:32:56.230Z,16.70
2018-05-18T10:35:24.483Z,17.00
2018-05-18T10:37:51.915Z,17.00
2018-05-18T10:40:20.114Z,16.80
2018-05-18T10:42:47.543Z,16.70
2018-05-18T10:45:15.814Z,17.10
2018-05-18T10:47:43.220Z,17.00
2018-05-18T10:50:10.660Z,17.10
2018-05-18T10:52:38.134Z,17.20
2018-05-18T10:55:05.556Z,16.90
2018-05-18T10:57:33.759Z,16.90
2018-05-18T11:00:01.198Z,16.90
2018-05-18T11:02:29.398Z,17.30
2018-05-18T11:04:56.842Z,17.30
2018-05-18T11:07:24.279Z,17.20
2018-05-18T11:09:52.491Z,17.40
2018-05-18T11:12:19.936Z,17.40
2018-05-18T11:14:47.371Z,17.60
2018-05-18T11:17:15.563Z,17.90
2018-05-18T11:19:43.004Z,17.90
2018-05-18T11:22:11.215Z,17.60
2018-05-18T11:24:38.650Z,17.60
2018-05-18T11:27:06.089Z,17.50
2018-05-18T11:29:34.299Z,17.40
2018-05-18T11:32:01.742Z,17.40
2018-05-18T11:34:29.175Z,17.50
2018-05-18T11:36:57.386Z,17.80
2018-05-18T11:39:24.836Z,17.80
2018-05-18T11:41:52.271Z,17.80
2018-05-18T11:44:21.039Z,17.90
2018-05-18T11:46:48.581Z,17.90
2018-05-18T11:49:16.014Z,17.80
2018-05-18T11:51:43.457Z,17.80
2018-05-18T11:54:10.898Z,17.90
2018-05-18T11:56:38.330Z,18.10
2018-05-18T11:59:06.536Z,18.20
2018-05-18T12:01:33.999Z,18.20
2018-05-18T12:04:01.432Z,18.30
2018-05-18T12:06:29.634Z,18.00
2018-05-18T12:08:57.066Z,18.00
2018-05-18T12:11:24.507Z,18.00
2018-05-18T12:13:52.713Z,18.20
2018-05-18T12:16:20.155Z,18.10
2018-05-18T12:18:47.590Z,18.20
2018-05-18T12:21:15.799Z,18.30
2018-05-18T12:23:43.231Z,18.30
2018-05-18T12:26:11.475Z,18.60
2018-05-18T12:28:38.887Z,18.60
2018-05-18T12:31:06.314Z,18.60
2018-05-18T12:33:34.552Z,18.30
2018-05-18T12:36:01.987Z,18.30
2018-05-18T12:38:29.443Z,18.40
2018-05-18T12:40:56.875Z,18.30
2018-05-18T12:43:24.315Z,18.40
2018-05-18T12:45:52.517Z,18.40
2018-05-18T12:48:19.951Z,18.40
2018-05-18T12:50:48.146Z,18.50
2018-05-18T12:53:15.587Z,18.50
2018-05-18T12:55:43.795Z,18.10
2018-05-18T12:58:11.232Z,18.10
2018-05-18T13:00:38.658Z,18.20
2018-05-18T13:03:06.164Z,18.40
2018-05-18T13:05:34.356Z,18.60
2018-05-18T13:08:01.950Z,18.60
2018-05-18T13:10:29.356Z,18.60
2018-05-18T13:12:56.791Z,18.60
2018-05-18T13:15:24.271Z,18.40
2018-05-18T13:17:51.721Z,18.50
2018-05-18T13:20:19.152Z,18.60
2018-05-18T13:22:48.523Z,18.60
2018-05-18T13:25:15.962Z,18.60
2018-05-18T13:27:43.399Z,18.70
2018-05-18T13:30:10.839Z,18.70
2018-05-18T13:32:38.276Z,18.80
2018-05-18T13:35:06.471Z,18.90
2018-05-18T13:37:33.912Z,18.90
2018-05-18T13:40:02.119Z,19.00
2018-05-18T13:42:29.559Z,19.00
2018-05-18T13:44:57.125Z,18.90
2018-05-18T13:47:25.202Z,18.70
2018-05-18T13:49:52.647Z,18.70
2018-05-18T13:52:20.076Z,18.70
2018-05-18T13:54:48.295Z,18.70
2018-05-18T13:57:15.769Z,18.70
2018-05-18T13:59:43.922Z,18.50
2018-05-18T14:02:11.355Z,18.60
2018-05-18T14:04:38.791Z,18.60
2018-05-18T14:07:06.987Z,18.70
2018-05-18T14:09:34.427Z,18.70
2018-05-18T14:12:02.624Z,18.60
2018-05-18T14:14:30.063Z,18.50
2018-05-18T14:16:58.262Z,18.60
2018-05-18T14:19:25.703Z,18.50
2018-05-18T14:21:54.009Z,18.70
2018-05-18T14:24:21.447Z,18.70
2018-05-18T14:26:48.888Z,18.60
2018-05-18T14:29:17.093Z,18.50
2018-05-18T14:31:44.553Z,18.40
2018-05-18T14:34:11.958Z,18.50
2018-05-18T14:36:39.390Z,18.60
2018-05-18T14:39:06.844Z,18.70
2018-05-18T14:41:34.279Z,18.80
2018-05-18T14:44:01.773Z,18.70
2018-05-18T14:46:29.163Z,18.50
2018-05-18T14:48:57.364Z,18.20
2018-05-18T14:51:24.806Z,18.20
2018-05-18T14:53:52.255Z,18.30
2018-05-18T14:56:20.451Z,18.50
2018-05-18T14:58:47.898Z,18.50
2018-05-18T15:01:15.331Z,18.50
2018-05-18T15:03:43.526Z,18.70
2018-05-18T15:06:10.967Z,18.70
2018-05-18T15:08:39.170Z,18.80
2018-05-18T15:11:06.690Z,18.80
2018-05-18T15:13:34.047Z,18.70
2018-05-18T15:16:02.260Z,18.40
2018-05-18T15:18:29.697Z,18.40
2018-05-18T15:20:57.130Z,18.60
2018-05-18T15:23:25.340Z,18.70
2018-05-18T15:25:52.786Z,18.70
2018-05-18T15:28:20.991Z,18.60
2018-05-18T15:30:48.436Z,18.60
2018-05-18T15:33:15.879Z,18.60
2018-05-18T15:35:43.303Z,18.60
2018-05-18T15:38:11.511Z,18.60
2018-05-18T15:40:38.951Z,18.60
2018-05-18T15:43:07.149Z,18.70
2018-05-18T15:45:34.583Z,18.70
2018-05-18T15:48:02.785Z,18.60
2018-05-18T15:50:30.222Z,18.60
2018-05-18T15:52:57.655Z,18.60
2018-05-18T15:55:25.873Z,18.00
2018-05-18T15:57:53.310Z,18.00
2018-05-18T16:00:20.740Z,18.00
2018-05-18T16:02:48.176Z,17.80
2018-05-18T16:05:15.611Z,17.80
2018-05-18T16:07:43.072Z,17.90
2018-05-18T16:10:10.486Z,17.90
2018-05-18T16:12:37.926Z,17.80
2018-05-18T16:15:06.132Z,17.20
2018-05-18T16:17:33.564Z,17.20
2018-05-18T16:20:01.759Z,17.20
2018-05-18T16:22:29.198Z,17.20
2018-05-18T16:24:57.395Z,17.40
2018-05-18T16:27:24.823Z,17.30
2018-05-18T16:29:53.023Z,17.50
2018-05-18T16:32:20.455Z,17.50
2018-05-18T16:34:48.655Z,17.50
2018-05-18T16:37:16.091Z,17.50
2018-05-18T16:39:44.306Z,17.60
2018-05-18T16:42:11.735Z,17.50
2018-05-18T16:44:39.168Z,17.60
2018-05-18T16:47:07.374Z,17.50
2018-05-18T16:49:34.807Z,17.50
2018-05-18T16:52:03.276Z,17.50
2018-05-18T16:54:30.706Z,17.50
2018-05-18T16:56:58.154Z,17.40
2018-05-18T16:59:25.612Z,17.40
2018-05-18T17:01:53.023Z,17.30
2018-05-18T17:04:21.218Z,17.00
2018-05-18T17:06:48.675Z,16.90
2018-05-18T17:09:16.109Z,17.00
2018-05-18T17:11:44.868Z,17.00
2018-05-18T17:14:12.299Z,17.00
2018-05-18T17:16:39.744Z,16.90
2018-05-18T17:19:07.179Z,16.80
2018-05-18T17:21:34.611Z,16.70
2018-05-18T17:24:02.053Z,16.70
2018-05-18T17:26:29.488Z,16.80
2018-05-18T17:28:56.943Z,16.80
2018-05-18T17:31:24.377Z,16.70
2018-05-18T17:33:51.814Z,16.70
2018-05-18T17:36:21.004Z,16.50
2018-05-18T17:38:48.463Z,16.40
2018-05-18T17:41:16.671Z,16.40
2018-05-18T17:43:44.107Z,16.40
2018-05-18T17:46:12.311Z,16.40
2018-05-18T17:48:39.746Z,16.40
2018-05-18T17:51:07.189Z,16.30
2018-05-18T17:53:35.409Z,16.20
2018-05-18T17:56:02.839Z,16.20
2018-05-18T17:58:30.287Z,16.10
2018-05-18T18:00:58.507Z,15.90
2018-05-18T18:03:25.952Z,15.90
2018-05-18T18:05:54.190Z,15.80
2018-05-18T18:08:22.391Z,15.70
2018-05-18T18:10:49.839Z,15.70
2018-05-18T18:13:17.274Z,15.70
2018-05-18T18:15:45.480Z,15.50
2018-05-18T18:18:12.914Z,15.50
2018-05-18T18:20:41.120Z,15.40
2018-05-18T18:23:08.561Z,15.30
2018-05-18T18:25:35.987Z,15.30
2018-05-18T18:28:03.431Z,15.20
2018-05-18T18:30:30.866Z,15.10
2018-05-18T18:32:58.304Z,15.10
2018-05-18T18:35:25.773Z,15.10
2018-05-18T18:37:53.942Z,15.10
2018-05-18T18:40:21.383Z,15.00
2018-05-18T18:42:48.836Z,15.00
2018-05-18T18:45:16.270Z,15.00
2018-05-18T18:47:44.467Z,14.90
2018-05-18T18:50:11.903Z,14.80
2018-05-18T18:52:40.095Z,14.50
2018-05-18T18:55:07.532Z,14.50
2018-05-18T18:57:35.722Z,14.10
2018-05-18T19:00:03.167Z,14.10
2018-05-18T19:02:31.365Z,13.30
2018-05-18T19:04:58.879Z,13.30
2018-05-18T19:07:27.264Z,13.20
2018-05-18T19:09:54.715Z,13.20
2018-05-18T19:12:22.138Z,13.20
2018-05-18T19:14:49.570Z,13.30
2018-05-18T19:17:17.006Z,13.40
2018-05-18T19:19:45.211Z,13.40
2018-05-18T19:22:12.651Z,13.40
2018-05-18T19:24:40.088Z,13.40
2018-05-18T19:27:08.283Z,13.40
2018-05-18T19:29:35.724Z,13.40
2018-05-18T19:32:03.157Z,13.30
2018-05-18T19:34:30.593Z,13.30
2018-05-18T19:36:58.024Z,13.20
2018-05-18T19:39:25.463Z,13.20
2018-05-18T19:41:52.892Z,13.20
2018-05-18T19:44:20.340Z,13.10
2018-05-18T19:46:47.775Z,13.10
2018-05-18T19:49:15.219Z,13.00
2018-05-18T19:51:42.647Z,13.00
2018-05-18T19:54:10.079Z,13.00
2018-05-18T19:56:38.284Z,12.90
2018-05-18T19:59:05.716Z,12.90
2018-05-18T20:01:33.911Z,12.80
2018-05-18T20:04:01.346Z,12.80
2018-05-18T20:06:29.551Z,12.70
2018-05-18T20:08:56.983Z,12.60
2018-05-18T20:11:25.192Z,12.60
2018-05-18T20:13:52.628Z,12.60
2018-05-18T20:16:20.076Z,12.60
2018-05-18T20:18:47.516Z,12.50
2018-05-18T20:21:14.951Z,12.50
2018-05-18T20:23:42.396Z,12.50
2018-05-18T20:26:09.840Z,12.40
2018-05-18T20:28:37.263Z,12.40
2018-05-18T20:31:04.703Z,12.40
2018-05-18T20:33:32.907Z,12.20
2018-05-18T20:36:00.334Z,12.20
2018-05-18T20:38:28.542Z,12.20
2018-05-18T20:40:56.752Z,12.10
2018-05-18T20:43:24.193Z,12.10
2018-05-18T20:45:51.637Z,12.10
2018-05-18T20:48:19.072Z,12.00
2018-05-18T20:50:46.508Z,12.00
2018-05-18T20:53:13.938Z,12.00
2018-05-18T20:55:41.383Z,12.00
2018-05-18T20:58:08.823Z,11.90
2018-05-18T21:00:36.272Z,11.80
2018-05-18T21:03:03.698Z,11.80
2018-05-18T21:05:31.894Z,11.60
2018-05-18T21:07:59.341Z,11.60
2018-05-18T21:10:27.548Z,11.50
2018-05-18T21:12:55.051Z,11.50
2018-05-18T21:15:23.250Z,11.50
2018-05-18T21:17:50.687Z,11.40
2018-05-18T21:20:18.120Z,11.50
2018-05-18T21:22:45.562Z,11.50
2018-05-18T21:25:12.999Z,11.40
2018-05-18T21:27:40.439Z,11.50
2018-05-18T21:30:07.867Z,11.40
2018-05-18T21:32:36.091Z,11.40
2018-05-18T21:35:03.552Z,11.40
2018-05-18T21:37:31.004Z,11.40
2018-05-18T21:39:58.444Z,11.30
2018-05-18T21:42:25.879Z,11.30
2018-05-18T21:44:54.077Z,11.20
2018-05-18T21:47:21.525Z,11.20
2018-05-18T21:49:55.476Z,11.20
2018-05-18T21:52:22.919Z,11.20
2018-05-18T21:54:50.353Z,11.20
2018-05-18T21:57:17.804Z,11.10
2018-05-18T21:59:45.235Z,11.10
2018-05-18T22:02:13.439Z,11.10
2018-05-18T22:04:40.872Z,11.10
2018-05-18T22:07:09.080Z,11.00
2018-05-18T22:09:36.511Z,11.00
2018-05-18T22:12:04.719Z,11.00
2018-05-18T22:14:32.151Z,11.00
2018-05-18T22:16:59.594Z,11.00
2018-05-18T22:19:27.787Z,10.90
2018-05-18T22:21:55.224Z,10.90
2018-05-18T22:24:23.437Z,10.90
2018-05-18T22:26:50.876Z,10.80
2018-05-18T22:29:18.307Z,10.80
2018-05-18T22:31:46.521Z,10.80
2018-05-18T22:34:13.960Z,10.80
2018-05-18T22:36:41.395Z,10.70
2018-05-18T22:39:09.602Z,10.70
2018-05-18T22:41:37.039Z,10.70
2018-05-18T22:44:05.243Z,10.60
2018-05-18T22:46:32.677Z,10.60
2018-05-18T22:49:00.122Z,10.60
2018-05-18T22:51:28.320Z,10.50
2018-05-18T22:53:55.787Z,10.50
2018-05-18T22:56:23.231Z,10.50
2018-05-18T22:58:50.667Z,10.40
2018-05-18T23:01:18.872Z,10.30
2018-05-18T23:03:46.314Z,10.30
2018-05-18T23:06:13.747Z,10.30
2018-05-18T23:08:41.955Z,10.30
2018-05-18T23:11:09.379Z,10.30
2018-05-18T23:13:37.591Z,10.30
2018-05-18T23:16:05.067Z,10.30
2018-05-18T23:18:32.560Z,10.30
2018-05-18T23:20:59.939Z,10.20
2018-05-18T23:23:27.374Z,10.20
2018-05-18T23:25:55.579Z,10.10
2018-05-18T23:28:23.017Z,10.10
2018-05-18T23:30:51.232Z,10.00
2018-05-18T23:33:18.676Z,10.00
2018-05-18T23:35:46.108Z,10.00
2018-05-18T23:38:14.302Z,9.90
2018-05-18T23:40:41.727Z,9.90
2018-05-18T23:43:09.922Z,9.90
2018-05-18T23:45:37.360Z,10.00
2018-05-18T23:48:04.807Z,10.00
2018-05-18T23:50:32.232Z,10.00
2018-05-18T23:52:59.733Z,10.00
2018-05-18T23:55:27.116Z,10.00
2018-05-18T23:57:54.552Z,10.00
